sensor_id;sensor_type;location;lat;lon;timestamp;P1;durP1;ratioP1;P2;durP2;ratioP2
9280;SDS011;4679;47.966;7.958;2023-11-21T06:29:03;1.23;;;0.57;;
9280;SDS011;4679;47.966;7.958;2023-11-21T06:31:07;1.47;;;0.70;;
9280;SDS011;4679;47.966;7.958;2023-11-21T06:33:08;1.00;;;0.53;;
9280;SDS011;4679;47.966;7.958;2023-11-21T06:35:10;0.80;;;0.60;;
9280;SDS011;4679;47.966;7.958;2023-11-21T06:37:11;1.13;;;0.60;;
9280;SDS011;4679;47.966;7.958;2023-11-21T06:39:13;0.87;;;0.60;;
9280;SDS011;4679;47.966;7.958;2023-11-21T06:41:16;2.37;;;0.57;;
9280;SDS011;4679;47.966;7.958;2023-11-21T06:43:18;1.80;;;0.60;;
9280;SDS011;4679;47.966;7.958;2023-11-21T06:45:23;0.80;;;0.60;;
9280;SDS011;4679;47.966;7.958;2023-11-21T06:47:25;1.13;;;0.53;;
9280;SDS011;4679;47.966;7.958;2023-11-21T06:49:29;0.77;;;0.77;;
9280;SDS011;4679;47.966;7.958;2023-11-21T06:51:31;0.83;;;0.80;;
9280;SDS011;4679;47.966;7.958;2023-11-21T06:53:33;2.07;;;1.90;;
9280;SDS011;4679;47.966;7.958;2023-11-21T06:55:34;0.93;;;0.93;;
9280;SDS011;4679;47.966;7.958;2023-11-21T06:57:36;1.27;;;1.00;;
9280;SDS011;4679;47.966;7.958;2023-11-21T06:59:37;1.33;;;1.10;;
9280;SDS011;4679;47.966;7.958;2023-11-21T07:01:40;1.83;;;1.20;;
9280;SDS011;4679;47.966;7.958;2023-11-21T07:03:41;1.60;;;1.20;;
9280;SDS011;4679;47.966;7.958;2023-11-21T07:05:43;0.90;;;0.90;;
9280;SDS011;4679;47.966;7.958;2023-11-21T07:07:44;2.47;;;0.83;;
9280;SDS011;4679;47.966;7.958;2023-11-21T07:09:45;1.40;;;1.30;;
9280;SDS011;4679;47.966;7.958;2023-11-21T07:11:48;1.57;;;1.20;;
9280;SDS011;4679;47.966;7.958;2023-11-21T07:13:49;1.63;;;1.17;;
9280;SDS011;4679;47.966;7.958;2023-11-21T07:15:52;1.67;;;1.57;;
9280;SDS011;4679;47.966;7.958;2023-11-21T07:17:55;1.10;;;1.00;;
9280;SDS011;4679;47.966;7.958;2023-11-21T07:19:57;1.03;;;0.80;;
9280;SDS011;4679;47.966;7.958;2023-11-21T07:21:58;1.63;;;0.87;;
9280;SDS011;4679;47.966;7.958;2023-11-21T07:23:59;4.83;;;1.30;;
9280;SDS011;4679;47.966;7.958;2023-11-21T07:26:01;2.17;;;1.20;;
9280;SDS011;4679;47.966;7.958;2023-11-21T07:28:03;2.80;;;1.40;;
9280;SDS011;4679;47.966;7.958;2023-11-21T07:30:06;2.43;;;1.40;;
9280;SDS011;4679;47.966;7.958;2023-11-21T07:32:10;3.53;;;1.43;;
9280;SDS011;4679;47.966;7.958;2023-11-21T07:34:14;2.07;;;1.40;;
9280;SDS011;4679;47.966;7.958;2023-11-21T07:36:16;3.77;;;1.90;;
9280;SDS011;4679;47.966;7.958;2023-11-21T07:38:19;4.00;;;1.50;;
9280;SDS011;4679;47.966;7.958;2023-11-21T07:40:19;1.30;;;1.20;;
9280;SDS011;4679;47.966;7.958;2023-11-21T07:42:22;1.93;;;1.20;;
9280;SDS011;4679;47.966;7.958;2023-11-21T07:44:24;2.30;;;1.20;;
9280;SDS011;4679;47.966;7.958;2023-11-21T07:46:26;1.63;;;1.30;;
9280;SDS011;4679;47.966;7.958;2023-11-21T07:48:28;3.47;;;1.10;;
9280;SDS011;4679;47.966;7.958;2023-11-21T07:50:31;1.20;;;1.10;;
9280;SDS011;4679;47.966;7.958;2023-11-21T07:52:33;4.03;;;1.20;;
9280;SDS011;4679;47.966;7.958;2023-11-21T07:54:33;2.50;;;1.20;;
9280;SDS011;4679;47.966;7.958;2023-11-21T07:56:35;1.90;;;1.40;;
9280;SDS011;4679;47.966;7.958;2023-11-21T07:58:38;1.60;;;1.30;;
9280;SDS011;4679;47.966;7.958;2023-11-21T08:00:39;2.17;;;1.50;;
9280;SDS011;4679;47.966;7.958;2023-11-21T08:02:41;3.37;;;1.40;;
9280;SDS011;4679;47.966;7.958;2023-11-21T08:04:45;2.17;;;1.57;;
9280;SDS011;4679;47.966;7.958;2023-11-21T08:06:50;4.60;;;1.70;;
9280;SDS011;4679;47.966;7.958;2023-11-21T08:08:52;1.60;;;1.50;;
9280;SDS011;4679;47.966;7.958;2023-11-21T08:10:53;1.60;;;1.50;;
9280;SDS011;4679;47.966;7.958;2023-11-21T08:12:57;1.37;;;1.27;;
9280;SDS011;4679;47.966;7.958;2023-11-21T08:14:58;2.53;;;1.40;;
9280;SDS011;4679;47.966;7.958;2023-11-21T08:17:00;1.37;;;1.03;;
9280;SDS011;4679;47.966;7.958;2023-11-21T08:19:02;2.00;;;1.50;;
9280;SDS011;4679;47.966;7.958;2023-11-21T08:21:04;1.93;;;1.77;;
9280;SDS011;4679;47.966;7.958;2023-11-21T08:23:07;3.07;;;1.50;;
9280;SDS011;4679;47.966;7.958;2023-11-21T08:25:07;1.67;;;1.50;;
9280;SDS011;4679;47.966;7.958;2023-11-21T08:27:09;1.70;;;1.60;;
9280;SDS011;4679;47.966;7.958;2023-11-21T08:29:11;1.87;;;1.40;;
9280;SDS011;4679;47.966;7.958;2023-11-21T08:31:12;1.47;;;1.30;;
9280;SDS011;4679;47.966;7.958;2023-11-21T08:33:13;1.83;;;1.60;;
9280;SDS011;4679;47.966;7.958;2023-11-21T08:35:15;1.40;;;1.30;;
9280;SDS011;4679;47.966;7.958;2023-11-21T08:37:17;4.93;;;1.40;;
9280;SDS011;4679;47.966;7.958;2023-11-21T08:39:19;1.50;;;1.40;;
9280;SDS011;4679;47.966;7.958;2023-11-21T08:41:21;3.93;;;2.63;;
9280;SDS011;4679;47.966;7.958;2023-11-21T08:43:23;3.50;;;1.93;;
9280;SDS011;4679;47.966;7.958;2023-11-21T08:45:24;1.40;;;1.30;;
9280;SDS011;4679;47.966;7.958;2023-11-21T08:47:26;0.90;;;0.90;;
9280;SDS011;4679;47.966;7.958;2023-11-21T08:49:28;0.90;;;0.90;;
9280;SDS011;4679;47.966;7.958;2023-11-21T08:51:30;0.77;;;0.77;;
9280;SDS011;4679;47.966;7.958;2023-11-21T08:53:32;2.30;;;0.93;;
9280;SDS011;4679;47.966;7.958;2023-11-21T08:55:34;0.80;;;0.80;;
9280;SDS011;4679;47.966;7.958;2023-11-21T08:57:37;0.80;;;0.80;;
9280;SDS011;4679;47.966;7.958;2023-11-21T08:59:40;0.80;;;0.80;;
9280;SDS011;4679;47.966;7.958;2023-11-21T09:01:42;0.90;;;0.87;;
9280;SDS011;4679;47.966;7.958;2023-11-21T09:03:43;1.73;;;0.90;;
9280;SDS011;4679;47.966;7.958;2023-11-21T09:05:45;1.27;;;1.07;;
9280;SDS011;4679;47.966;7.958;2023-11-21T09:07:47;2.13;;;0.87;;
9280;SDS011;4679;47.966;7.958;2023-11-21T09:09:48;1.80;;;1.00;;
9280;SDS011;4679;47.966;7.958;2023-11-21T09:11:51;1.50;;;1.40;;
9280;SDS011;4679;47.966;7.958;2023-11-21T09:13:52;1.30;;;1.20;;
9280;SDS011;4679;47.966;7.958;2023-11-21T09:15:54;1.60;;;1.50;;
9280;SDS011;4679;47.966;7.958;2023-11-21T09:17:56;2.03;;;1.40;;
9280;SDS011;4679;47.966;7.958;2023-11-21T09:19:56;0.90;;;0.90;;
9280;SDS011;4679;47.966;7.958;2023-11-21T09:21:58;0.80;;;0.80;;
9280;SDS011;4679;47.966;7.958;2023-11-21T09:23:59;0.43;;;0.43;;
9280;SDS011;4679;47.966;7.958;2023-11-21T09:26:01;1.73;;;0.40;;
9280;SDS011;4679;47.966;7.958;2023-11-21T09:28:04;0.40;;;0.40;;
9280;SDS011;4679;47.966;7.958;2023-11-21T09:30:08;0.40;;;0.40;;
9280;SDS011;4679;47.966;7.958;2023-11-21T09:32:10;0.70;;;0.40;;
9280;SDS011;4679;47.966;7.958;2023-11-21T09:34:14;1.27;;;0.60;;
9280;SDS011;4679;47.966;7.958;2023-11-21T09:36:16;0.40;;;0.40;;
9280;SDS011;4679;47.966;7.958;2023-11-21T09:38:18;1.23;;;0.40;;
9280;SDS011;4679;47.966;7.958;2023-11-21T09:40:20;0.50;;;0.50;;
9280;SDS011;4679;47.966;7.958;2023-11-21T09:42:25;0.83;;;0.60;;
9280;SDS011;4679;47.966;7.958;2023-11-21T09:44:35;0.83;;;0.53;;
9280;SDS011;4679;47.966;7.958;2023-11-21T09:46:42;0.60;;;0.53;;
9280;SDS011;4679;47.966;7.958;2023-11-21T09:48:44;0.40;;;0.40;;
9280;SDS011;4679;47.966;7.958;2023-11-21T09:50:47;0.40;;;0.40;;
9280;SDS011;4679;47.966;7.958;2023-11-21T09:52:50;0.37;;;0.37;;
9280;SDS011;4679;47.966;7.958;2023-11-21T09:54:57;0.30;;;0.30;;
9280;SDS011;4679;47.966;7.958;2023-11-21T09:56:59;0.83;;;0.47;;
9280;SDS011;4679;47.966;7.958;2023-11-21T09:59:01;0.40;;;0.40;;
9280;SDS011;4679;47.966;7.958;2023-11-21T10:01:08;0.57;;;0.57;;
9280;SDS011;4679;47.966;7.958;2023-11-21T10:03:09;0.50;;;0.50;;
9280;SDS011;4679;47.966;7.958;2023-11-21T10:05:12;1.23;;;0.50;;
9280;SDS011;4679;47.966;7.958;2023-11-21T10:07:13;1.07;;;0.60;;
9280;SDS011;4679;47.966;7.958;2023-11-21T10:09:19;1.20;;;0.50;;
9280;SDS011;4679;47.966;7.958;2023-11-21T10:11:22;3.20;;;0.67;;
9280;SDS011;4679;47.966;7.958;2023-11-21T10:13:25;0.60;;;0.60;;
9280;SDS011;4679;47.966;7.958;2023-11-21T10:15:30;1.33;;;0.60;;
9280;SDS011;4679;47.966;7.958;2023-11-21T10:17:32;0.80;;;0.60;;
9280;SDS011;4679;47.966;7.958;2023-11-21T10:19:43;1.80;;;0.70;;
9280;SDS011;4679;47.966;7.958;2023-11-21T10:21:47;2.03;;;0.80;;
9280;SDS011;4679;47.966;7.958;2023-11-21T10:23:49;2.20;;;0.80;;
9280;SDS011;4679;47.966;7.958;2023-11-21T10:25:53;0.90;;;0.90;;
9280;SDS011;4679;47.966;7.958;2023-11-21T10:27:57;1.10;;;0.80;;
9280;SDS011;4679;47.966;7.958;2023-11-21T10:30:02;2.13;;;0.80;;
9280;SDS011;4679;47.966;7.958;2023-11-21T10:32:04;1.97;;;0.90;;
9280;SDS011;4679;47.966;7.958;2023-11-21T10:36:28;2.10;;;0.70;;
9280;SDS011;4679;47.966;7.958;2023-11-21T10:38:33;2.33;;;0.57;;
9280;SDS011;4679;47.966;7.958;2023-11-21T10:40:43;0.30;;;0.30;;
9280;SDS011;4679;47.966;7.958;2023-11-21T10:42:46;2.43;;;0.50;;
9280;SDS011;4679;47.966;7.958;2023-11-21T10:44:48;0.60;;;0.53;;
9280;SDS011;4679;47.966;7.958;2023-11-21T10:46:50;1.03;;;0.60;;
9280;SDS011;4679;47.966;7.958;2023-11-21T10:48:56;0.83;;;0.50;;
9280;SDS011;4679;47.966;7.958;2023-11-21T10:50:59;0.67;;;0.67;;
9280;SDS011;4679;47.966;7.958;2023-11-21T10:53:00;0.70;;;0.70;;
9280;SDS011;4679;47.966;7.958;2023-11-21T10:55:05;0.70;;;0.70;;
9280;SDS011;4679;47.966;7.958;2023-11-21T10:57:18;1.57;;;0.70;;
9280;SDS011;4679;47.966;7.958;2023-11-21T10:59:22;0.83;;;0.67;;
9280;SDS011;4679;47.966;7.958;2023-11-21T11:01:25;2.00;;;1.00;;
9280;SDS011;4679;47.966;7.958;2023-11-21T11:03:30;2.93;;;0.80;;
9280;SDS011;4679;47.966;7.958;2023-11-21T11:05:33;1.43;;;0.80;;
9280;SDS011;4679;47.966;7.958;2023-11-21T11:07:37;0.70;;;0.70;;
9280;SDS011;4679;47.966;7.958;2023-11-21T11:09:42;0.60;;;0.60;;
9280;SDS011;4679;47.966;7.958;2023-11-21T11:11:47;0.70;;;0.70;;
9280;SDS011;4679;47.966;7.958;2023-11-21T11:13:49;0.70;;;0.70;;
9280;SDS011;4679;47.966;7.958;2023-11-21T11:15:51;1.70;;;1.07;;
9280;SDS011;4679;47.966;7.958;2023-11-21T11:17:59;0.70;;;0.63;;
9280;SDS011;4679;47.966;7.958;2023-11-21T11:20:03;1.33;;;0.40;;
9280;SDS011;4679;47.966;7.958;2023-11-21T11:22:08;2.00;;;0.53;;
9280;SDS011;4679;47.966;7.958;2023-11-21T11:24:30;1.10;;;0.50;;
9280;SDS011;4679;47.966;7.958;2023-11-21T11:26:42;0.40;;;0.40;;
9280;SDS011;4679;47.966;7.958;2023-11-21T11:28:54;0.70;;;0.50;;
9280;SDS011;4679;47.966;7.958;2023-11-21T11:31:04;1.10;;;1.00;;
9280;SDS011;4679;47.966;7.958;2023-11-21T11:33:21;1.47;;;0.60;;
9280;SDS011;4679;47.966;7.958;2023-11-21T11:35:31;0.77;;;0.77;;
9280;SDS011;4679;47.966;7.958;2023-11-21T11:37:35;0.47;;;0.47;;
9280;SDS011;4679;47.966;7.958;2023-11-21T11:39:39;0.37;;;0.37;;
9280;SDS011;4679;47.966;7.958;2023-11-21T11:41:43;0.40;;;0.40;;
9280;SDS011;4679;47.966;7.958;2023-11-21T11:43:45;0.80;;;0.50;;
9280;SDS011;4679;47.966;7.958;2023-11-21T11:45:46;0.73;;;0.57;;
9280;SDS011;4679;47.966;7.958;2023-11-21T11:47:56;2.13;;;0.50;;
9280;SDS011;4679;47.966;7.958;2023-11-21T11:49:58;0.33;;;0.33;;
9280;SDS011;4679;47.966;7.958;2023-11-21T11:54:41;0.63;;;0.47;;
9280;SDS011;4679;47.966;7.958;2023-11-21T11:56:44;0.40;;;0.40;;
9280;SDS011;4679;47.966;7.958;2023-11-21T11:58:49;0.53;;;0.53;;
9280;SDS011;4679;47.966;7.958;2023-11-21T12:00:51;0.60;;;0.60;;
9280;SDS011;4679;47.966;7.958;2023-11-21T12:02:55;1.60;;;1.50;;
9280;SDS011;4679;47.966;7.958;2023-11-21T12:04:59;1.97;;;1.00;;
9280;SDS011;4679;47.966;7.958;2023-11-21T12:07:00;0.53;;;0.50;;
9280;SDS011;4679;47.966;7.958;2023-11-21T12:09:03;1.87;;;0.33;;
9280;SDS011;4679;47.966;7.958;2023-11-21T12:11:06;0.50;;;0.40;;
9280;SDS011;4679;47.966;7.958;2023-11-21T12:13:11;0.33;;;0.33;;
9280;SDS011;4679;47.966;7.958;2023-11-21T12:15:13;0.33;;;0.33;;
9280;SDS011;4679;47.966;7.958;2023-11-21T12:17:14;1.23;;;0.40;;
9280;SDS011;4679;47.966;7.958;2023-11-21T12:19:16;0.90;;;0.80;;
9280;SDS011;4679;47.966;7.958;2023-11-21T12:21:18;4.30;;;2.70;;
9280;SDS011;4679;47.966;7.958;2023-11-21T12:23:20;3.07;;;1.87;;
9280;SDS011;4679;47.966;7.958;2023-11-21T12:25:22;1.83;;;1.07;;
9280;SDS011;4679;47.966;7.958;2023-11-21T12:27:30;1.30;;;0.90;;
9280;SDS011;4679;47.966;7.958;2023-11-21T12:29:30;2.00;;;1.30;;
9280;SDS011;4679;47.966;7.958;2023-11-21T12:31:33;1.97;;;0.80;;
9280;SDS011;4679;47.966;7.958;2023-11-21T12:33:36;1.40;;;1.30;;
9280;SDS011;4679;47.966;7.958;2023-11-21T12:35:39;0.60;;;0.60;;
9280;SDS011;4679;47.966;7.958;2023-11-21T12:37:41;0.70;;;0.70;;
9280;SDS011;4679;47.966;7.958;2023-11-21T12:39:42;0.80;;;0.80;;
9280;SDS011;4679;47.966;7.958;2023-11-21T12:41:44;0.60;;;0.60;;
9280;SDS011;4679;47.966;7.958;2023-11-21T12:43:47;1.07;;;0.80;;
9280;SDS011;4679;47.966;7.958;2023-11-21T12:45:48;0.80;;;0.80;;
9280;SDS011;4679;47.966;7.958;2023-11-21T12:47:50;0.80;;;0.80;;
9280;SDS011;4679;47.966;7.958;2023-11-21T12:49:52;1.17;;;1.10;;
9280;SDS011;4679;47.966;7.958;2023-11-21T12:51:54;0.40;;;0.40;;
9280;SDS011;4679;47.966;7.958;2023-11-21T12:53:56;1.17;;;0.50;;
9280;SDS011;4679;47.966;7.958;2023-11-21T12:55:58;1.13;;;1.03;;
9280;SDS011;4679;47.966;7.958;2023-11-21T12:58:01;1.27;;;0.50;;
9280;SDS011;4679;47.966;7.958;2023-11-21T13:00:10;0.50;;;0.50;;
9280;SDS011;4679;47.966;7.958;2023-11-21T13:02:27;0.50;;;0.50;;
9280;SDS011;4679;47.966;7.958;2023-11-21T13:04:29;0.47;;;0.47;;
9280;SDS011;4679;47.966;7.958;2023-11-21T13:06:32;0.50;;;0.50;;
9280;SDS011;4679;47.966;7.958;2023-11-21T13:08:38;1.03;;;0.50;;
9280;SDS011;4679;47.966;7.958;2023-11-21T13:10:41;0.83;;;0.83;;
9280;SDS011;4679;47.966;7.958;2023-11-21T13:12:46;2.50;;;1.40;;
9280;SDS011;4679;47.966;7.958;2023-11-21T13:14:48;6.40;;;2.60;;
9280;SDS011;4679;47.966;7.958;2023-11-21T13:16:51;3.60;;;2.13;;
9280;SDS011;4679;47.966;7.958;2023-11-21T13:18:53;3.57;;;1.80;;
9280;SDS011;4679;47.966;7.958;2023-11-21T13:20:54;2.40;;;1.53;;
9280;SDS011;4679;47.966;7.958;2023-11-21T13:22:56;13.67;;;4.27;;
9280;SDS011;4679;47.966;7.958;2023-11-21T13:24:59;16.63;;;4.97;;
9280;SDS011;4679;47.966;7.958;2023-11-21T13:26:59;3.83;;;1.93;;
9280;SDS011;4679;47.966;7.958;2023-11-21T13:29:01;2.80;;;1.47;;
9280;SDS011;4679;47.966;7.958;2023-11-21T13:31:05;1.23;;;1.13;;
9280;SDS011;4679;47.966;7.958;2023-11-21T13:33:22;1.77;;;1.10;;
9280;SDS011;4679;47.966;7.958;2023-11-21T13:35:28;2.10;;;0.90;;
9280;SDS011;4679;47.966;7.958;2023-11-21T13:37:32;1.10;;;1.10;;
9280;SDS011;4679;47.966;7.958;2023-11-21T13:39:33;0.80;;;0.80;;
9280;SDS011;4679;47.966;7.958;2023-11-21T13:41:35;1.07;;;1.03;;
9280;SDS011;4679;47.966;7.958;2023-11-21T13:43:38;0.90;;;0.90;;
9280;SDS011;4679;47.966;7.958;2023-11-21T13:45:40;1.67;;;1.57;;
9280;SDS011;4679;47.966;7.958;2023-11-21T13:47:40;0.50;;;0.50;;
9280;SDS011;4679;47.966;7.958;2023-11-21T13:49:43;0.57;;;0.57;;
9280;SDS011;4679;47.966;7.958;2023-11-21T13:51:45;0.67;;;0.60;;
9280;SDS011;4679;47.966;7.958;2023-11-21T13:53:50;0.70;;;0.70;;
9280;SDS011;4679;47.966;7.958;2023-11-21T13:55:52;0.43;;;0.43;;
9280;SDS011;4679;47.966;7.958;2023-11-21T13:57:57;0.53;;;0.53;;
9280;SDS011;4679;47.966;7.958;2023-11-21T13:59:59;0.63;;;0.63;;
9280;SDS011;4679;47.966;7.958;2023-11-21T14:02:01;0.50;;;0.50;;
9280;SDS011;4679;47.966;7.958;2023-11-21T14:04:17;0.70;;;0.70;;
9280;SDS011;4679;47.966;7.958;2023-11-21T14:06:21;0.53;;;0.50;;
9280;SDS011;4679;47.966;7.958;2023-11-21T14:08:27;4.80;;;1.27;;
9280;SDS011;4679;47.966;7.958;2023-11-21T14:10:29;1.00;;;0.60;;
9280;SDS011;4679;47.966;7.958;2023-11-21T14:12:37;3.13;;;2.20;;
9280;SDS011;4679;47.966;7.958;2023-11-21T14:14:42;0.50;;;0.50;;
9280;SDS011;4679;47.966;7.958;2023-11-21T14:16:45;2.67;;;0.60;;
9280;SDS011;4679;47.966;7.958;2023-11-21T14:18:47;0.67;;;0.67;;
9280;SDS011;4679;47.966;7.958;2023-11-21T14:20:55;0.40;;;0.40;;
9280;SDS011;4679;47.966;7.958;2023-11-21T14:23:00;0.40;;;0.40;;
9280;SDS011;4679;47.966;7.958;2023-11-21T14:25:01;0.50;;;0.50;;
9280;SDS011;4679;47.966;7.958;2023-11-21T14:27:04;0.30;;;0.30;;
9280;SDS011;4679;47.966;7.958;2023-11-21T14:29:05;0.47;;;0.47;;
9280;SDS011;4679;47.966;7.958;2023-11-21T14:31:08;0.90;;;0.90;;
9280;SDS011;4679;47.966;7.958;2023-11-21T14:33:13;0.60;;;0.50;;
9280;SDS011;4679;47.966;7.958;2023-11-21T14:35:16;0.50;;;0.50;;
9280;SDS011;4679;47.966;7.958;2023-11-21T14:37:18;1.33;;;0.70;;
9280;SDS011;4679;47.966;7.958;2023-11-21T14:39:21;0.70;;;0.70;;
9280;SDS011;4679;47.966;7.958;2023-11-21T14:41:23;0.87;;;0.87;;
9280;SDS011;4679;47.966;7.958;2023-11-21T14:43:28;1.37;;;1.03;;
9280;SDS011;4679;47.966;7.958;2023-11-21T14:45:34;1.13;;;1.03;;
9280;SDS011;4679;47.966;7.958;2023-11-21T14:47:35;2.10;;;1.00;;
9280;SDS011;4679;47.966;7.958;2023-11-21T14:49:41;1.27;;;0.70;;
9280;SDS011;4679;47.966;7.958;2023-11-21T14:51:53;5.20;;;0.70;;
9280;SDS011;4679;47.966;7.958;2023-11-21T14:54:00;1.20;;;0.80;;
9280;SDS011;4679;47.966;7.958;2023-11-21T14:56:08;0.60;;;0.60;;
9280;SDS011;4679;47.966;7.958;2023-11-21T14:58:10;0.70;;;0.70;;
9280;SDS011;4679;47.966;7.958;2023-11-21T15:00:16;0.70;;;0.60;;
9280;SDS011;4679;47.966;7.958;2023-11-21T15:02:38;0.80;;;0.80;;
9280;SDS011;4679;47.966;7.958;2023-11-21T15:04:49;0.90;;;0.90;;
9280;SDS011;4679;47.966;7.958;2023-11-21T15:06:52;1.33;;;0.87;;
9280;SDS011;4679;47.966;7.958;2023-11-21T15:08:57;1.00;;;0.90;;
9280;SDS011;4679;47.966;7.958;2023-11-21T15:11:17;1.27;;;1.00;;
9280;SDS011;4679;47.966;7.958;2023-11-21T15:13:19;0.90;;;0.90;;
9280;SDS011;4679;47.966;7.958;2023-11-21T15:15:22;0.80;;;0.80;;
9280;SDS011;4679;47.966;7.958;2023-11-21T15:17:23;2.90;;;0.93;;
9280;SDS011;4679;47.966;7.958;2023-11-21T15:19:26;1.10;;;0.80;;
9280;SDS011;4679;47.966;7.958;2023-11-21T15:21:28;1.30;;;1.20;;
9280;SDS011;4679;47.966;7.958;2023-11-21T15:23:29;1.37;;;1.27;;
9280;SDS011;4679;47.966;7.958;2023-11-21T15:25:31;1.93;;;1.70;;
9280;SDS011;4679;47.966;7.958;2023-11-21T15:27:35;4.43;;;2.40;;
9280;SDS011;4679;47.966;7.958;2023-11-21T15:29:36;2.03;;;1.83;;
9280;SDS011;4679;47.966;7.958;2023-11-21T15:31:38;2.13;;;1.93;;
9280;SDS011;4679;47.966;7.958;2023-11-21T15:33:44;2.40;;;2.10;;
9280;SDS011;4679;47.966;7.958;2023-11-21T15:35:45;1.80;;;1.70;;
9280;SDS011;4679;47.966;7.958;2023-11-21T15:37:47;2.50;;;2.20;;
9280;SDS011;4679;47.966;7.958;2023-11-21T15:39:48;2.47;;;2.13;;
9280;SDS011;4679;47.966;7.958;2023-11-21T15:41:50;2.20;;;2.00;;
9280;SDS011;4679;47.966;7.958;2023-11-21T15:43:53;1.90;;;1.80;;
9280;SDS011;4679;47.966;7.958;2023-11-21T15:45:54;3.80;;;2.63;;
9280;SDS011;4679;47.966;7.958;2023-11-21T15:47:56;5.57;;;2.70;;
9280;SDS011;4679;47.966;7.958;2023-11-21T15:49:58;2.30;;;2.10;;
9280;SDS011;4679;47.966;7.958;2023-11-21T15:52:00;2.13;;;1.90;;
9280;SDS011;4679;47.966;7.958;2023-11-21T15:54:02;2.43;;;2.23;;
9280;SDS011;4679;47.966;7.958;2023-11-21T15:56:03;4.30;;;2.20;;
9280;SDS011;4679;47.966;7.958;2023-11-21T15:58:10;1.87;;;1.63;;
9280;SDS011;4679;47.966;7.958;2023-11-21T16:00:15;2.17;;;1.80;;
9280;SDS011;4679;47.966;7.958;2023-11-21T16:02:20;1.80;;;1.70;;
9280;SDS011;4679;47.966;7.958;2023-11-21T16:04:20;1.80;;;1.70;;
9280;SDS011;4679;47.966;7.958;2023-11-21T16:06:23;2.67;;;1.47;;
9280;SDS011;4679;47.966;7.958;2023-11-21T16:08:25;1.60;;;1.50;;
9280;SDS011;4679;47.966;7.958;2023-11-21T16:10:26;1.80;;;1.37;;
9280;SDS011;4679;47.966;7.958;2023-11-21T16:12:28;1.80;;;1.33;;
9280;SDS011;4679;47.966;7.958;2023-11-21T16:14:30;2.53;;;1.47;;
9280;SDS011;4679;47.966;7.958;2023-11-21T16:16:38;2.33;;;1.70;;
9280;SDS011;4679;47.966;7.958;2023-11-21T16:18:40;1.63;;;1.43;;
9280;SDS011;4679;47.966;7.958;2023-11-21T16:20:42;2.07;;;1.77;;
9280;SDS011;4679;47.966;7.958;2023-11-21T16:22:44;1.57;;;1.47;;
9280;SDS011;4679;47.966;7.958;2023-11-21T16:24:45;1.67;;;1.57;;
9280;SDS011;4679;47.966;7.958;2023-11-21T16:26:47;1.40;;;1.30;;
9280;SDS011;4679;47.966;7.958;2023-11-21T16:28:48;1.50;;;1.40;;
9280;SDS011;4679;47.966;7.958;2023-11-21T16:30:51;2.03;;;1.60;;
9280;SDS011;4679;47.966;7.958;2023-11-21T16:32:53;1.40;;;1.30;;
9280;SDS011;4679;47.966;7.958;2023-11-21T16:34:55;1.20;;;1.10;;
9280;SDS011;4679;47.966;7.958;2023-11-21T16:36:57;0.90;;;0.80;;
9280;SDS011;4679;47.966;7.958;2023-11-21T16:38:58;0.70;;;0.70;;
9280;SDS011;4679;47.966;7.958;2023-11-21T16:41:00;1.40;;;1.30;;
9280;SDS011;4679;47.966;7.958;2023-11-21T16:43:03;1.43;;;1.23;;
9280;SDS011;4679;47.966;7.958;2023-11-21T16:45:06;2.97;;;2.00;;
9280;SDS011;4679;47.966;7.958;2023-11-21T16:47:08;3.53;;;2.27;;
9280;SDS011;4679;47.966;7.958;2023-11-21T16:49:10;2.33;;;2.13;;
9280;SDS011;4679;47.966;7.958;2023-11-21T16:51:14;1.57;;;1.47;;
9280;SDS011;4679;47.966;7.958;2023-11-21T16:53:19;1.70;;;1.60;;
9280;SDS011;4679;47.966;7.958;2023-11-21T16:55:20;1.40;;;1.30;;
9280;SDS011;4679;47.966;7.958;2023-11-21T16:57:23;1.27;;;1.17;;
9280;SDS011;4679;47.966;7.958;2023-11-21T16:59:24;1.80;;;1.50;;
9280;SDS011;4679;47.966;7.958;2023-11-21T17:01:26;1.50;;;1.40;;
9280;SDS011;4679;47.966;7.958;2023-11-21T17:03:29;1.50;;;1.40;;
9280;SDS011;4679;47.966;7.958;2023-11-21T17:05:32;1.40;;;1.30;;
9280;SDS011;4679;47.966;7.958;2023-11-21T17:07:34;1.33;;;1.23;;
9280;SDS011;4679;47.966;7.958;2023-11-21T17:09:35;1.40;;;1.30;;
9280;SDS011;4679;47.966;7.958;2023-11-21T17:11:37;1.50;;;1.40;;
9280;SDS011;4679;47.966;7.958;2023-11-21T17:13:38;2.30;;;1.60;;
9280;SDS011;4679;47.966;7.958;2023-11-21T17:15:39;1.57;;;1.47;;
9280;SDS011;4679;47.966;7.958;2023-11-21T17:17:43;1.80;;;1.70;;
9280;SDS011;4679;47.966;7.958;2023-11-21T17:19:45;1.47;;;1.37;;
9280;SDS011;4679;47.966;7.958;2023-11-21T17:21:49;1.87;;;1.77;;
9280;SDS011;4679;47.966;7.958;2023-11-21T17:23:50;3.17;;;1.67;;
9280;SDS011;4679;47.966;7.958;2023-11-21T17:25:52;1.90;;;1.80;;
9280;SDS011;4679;47.966;7.958;2023-11-21T17:27:54;1.93;;;1.80;;
9280;SDS011;4679;47.966;7.958;2023-11-21T17:29:56;4.43;;;2.47;;
9280;SDS011;4679;47.966;7.958;2023-11-21T17:31:58;2.30;;;2.20;;
9280;SDS011;4679;47.966;7.958;2023-11-21T17:33:59;2.90;;;2.67;;
9280;SDS011;4679;47.966;7.958;2023-11-21T17:36:01;2.53;;;2.33;;
9280;SDS011;4679;47.966;7.958;2023-11-21T17:38:04;5.07;;;2.77;;
9280;SDS011;4679;47.966;7.958;2023-11-21T17:40:06;3.33;;;3.13;;
9280;SDS011;4679;47.966;7.958;2023-11-21T17:42:08;2.77;;;2.57;;
9280;SDS011;4679;47.966;7.958;2023-11-21T17:44:09;3.50;;;3.30;;
9280;SDS011;4679;47.966;7.958;2023-11-21T17:46:10;3.13;;;2.90;;
9280;SDS011;4679;47.966;7.958;2023-11-21T17:48:12;3.60;;;3.30;;
9280;SDS011;4679;47.966;7.958;2023-11-21T17:50:14;3.67;;;3.37;;
9280;SDS011;4679;47.966;7.958;2023-11-21T17:52:16;3.90;;;3.60;;
9280;SDS011;4679;47.966;7.958;2023-11-21T17:54:20;4.03;;;3.73;;
9280;SDS011;4679;47.966;7.958;2023-11-21T17:56:21;4.40;;;4.07;;
9280;SDS011;4679;47.966;7.958;2023-11-21T17:58:22;5.00;;;4.60;;
9280;SDS011;4679;47.966;7.958;2023-11-21T18:00:23;6.10;;;5.53;;
9280;SDS011;4679;47.966;7.958;2023-11-21T18:02:25;5.80;;;5.30;;
9280;SDS011;4679;47.966;7.958;2023-11-21T18:04:28;22.67;;;17.03;;
9280;SDS011;4679;47.966;7.958;2023-11-21T18:06:30;9.47;;;8.47;;
9280;SDS011;4679;47.966;7.958;2023-11-21T18:08:31;12.13;;;10.40;;
9280;SDS011;4679;47.966;7.958;2023-11-21T18:10:36;7.30;;;6.60;;
9280;SDS011;4679;47.966;7.958;2023-11-21T18:12:37;6.93;;;6.33;;
9280;SDS011;4679;47.966;7.958;2023-11-21T18:14:39;17.77;;;14.77;;
9280;SDS011;4679;47.966;7.958;2023-11-21T18:16:39;15.53;;;13.10;;
9280;SDS011;4679;47.966;7.958;2023-11-21T18:18:42;9.37;;;6.87;;
9280;SDS011;4679;47.966;7.958;2023-11-21T18:20:42;15.23;;;10.83;;
9280;SDS011;4679;47.966;7.958;2023-11-21T18:22:45;7.40;;;6.73;;
9280;SDS011;4679;47.966;7.958;2023-11-21T18:24:46;8.27;;;7.23;;
9280;SDS011;4679;47.966;7.958;2023-11-21T18:26:49;11.17;;;10.10;;
9280;SDS011;4679;47.966;7.958;2023-11-21T18:28:51;15.27;;;13.73;;
9280;SDS011;4679;47.966;7.958;2023-11-21T18:30:52;9.33;;;8.40;;
9280;SDS011;4679;47.966;7.958;2023-11-21T18:32:54;13.67;;;12.10;;
9280;SDS011;4679;47.966;7.958;2023-11-21T18:34:55;10.47;;;9.37;;
9280;SDS011;4679;47.966;7.958;2023-11-21T18:36:57;10.23;;;8.17;;
9280;SDS011;4679;47.966;7.958;2023-11-21T18:38:59;10.20;;;8.90;;
9280;SDS011;4679;47.966;7.958;2023-11-21T18:41:00;9.33;;;7.43;;
9280;SDS011;4679;47.966;7.958;2023-11-21T18:43:03;8.80;;;7.90;;
9280;SDS011;4679;47.966;7.958;2023-11-21T18:45:05;7.60;;;6.90;;
9280;SDS011;4679;47.966;7.958;2023-11-21T18:47:07;8.30;;;7.43;;
9280;SDS011;4679;47.966;7.958;2023-11-21T18:49:11;8.07;;;7.07;;
9280;SDS011;4679;47.966;7.958;2023-11-21T18:51:13;8.00;;;7.20;;
9280;SDS011;4679;47.966;7.958;2023-11-21T18:53:15;8.13;;;7.33;;
9280;SDS011;4679;47.966;7.958;2023-11-21T18:55:16;9.97;;;8.33;;
9280;SDS011;4679;47.966;7.958;2023-11-21T18:57:17;8.23;;;7.47;;
9280;SDS011;4679;47.966;7.958;2023-11-21T18:59:20;7.60;;;6.97;;
9280;SDS011;4679;47.966;7.958;2023-11-21T19:01:25;9.40;;;7.77;;
9280;SDS011;4679;47.966;7.958;2023-11-21T19:03:27;6.87;;;6.37;;
9280;SDS011;4679;47.966;7.958;2023-11-21T19:05:30;7.50;;;6.90;;
9280;SDS011;4679;47.966;7.958;2023-11-21T19:07:31;8.67;;;7.87;;
9280;SDS011;4679;47.966;7.958;2023-11-21T19:09:36;8.33;;;7.57;;
9280;SDS011;4679;47.966;7.958;2023-11-21T19:11:37;8.23;;;7.53;;
9280;SDS011;4679;47.966;7.958;2023-11-21T19:13:39;11.73;;;10.30;;
9280;SDS011;4679;47.966;7.958;2023-11-21T19:15:42;12.50;;;9.87;;
9280;SDS011;4679;47.966;7.958;2023-11-21T19:17:44;9.23;;;8.30;;